Time;durP1;ratioP1;P1;durP2;ratioP2;P2;SDS_P1;SDS_P2;PMS_P1;PMS_P2;Temp;Humidity;BMP_temperature;BMP_pressure;BME280_temperature;BME280_humidity;BME280_pressure;Samples;Min_cycle;Max_cycle;Signal;HPM_P1;HPM_P2
2023/03/01 00:00:41;;;;;;;4.07;2.67;;;6.50;88.60;;;;;;4986124;28;20213;-69
2023/03/01 00:03:08;;;;;;;5.33;3.10;;;6.50;88.40;;;;;;4971172;28;20203;-69
2023/03/01 00:05:37;;;;;;;7.03;3.00;;;6.50;88.70;;;;;;4968400;28;20459;-69
2023/03/01 00:08:04;;;;;;;5.43;3.13;;;6.50;88.80;;;;;;4971849;28;20275;-70
2023/03/01 00:10:32;;;;;;;3.47;2.43;;;6.50;89.20;;;;;;4988943;28;20212;-69
2023/03/01 00:12:59;;;;;;;3.43;2.40;;;6.60;89.50;;;;;;4983040;28;20223;-69
2023/03/01 00:15:26;;;;;;;6.13;3.10;;;6.60;89.60;;;;;;4969336;28;20284;-69
2023/03/01 00:17:54;;;;;;;7.00;3.40;;;6.60;90.00;;;;;;4988901;28;20214;-69
2023/03/01 00:20:21;;;;;;;7.83;3.33;;;6.60;90.00;;;;;;4989139;28;20193;-69
2023/03/01 00:22:49;;;;;;;4.60;2.80;;;6.60;90.30;;;;;;4992953;28;20311;-70
2023/03/01 00:25:16;;;;;;;4.20;2.70;;;6.60;90.40;;;;;;4988871;28;20539;-69
2023/03/01 00:27:45;;;;;;;5.73;2.80;;;6.60;90.50;;;;;;4976104;28;20213;-70
2023/03/01 00:30:13;;;;;;;9.40;3.50;;;6.60;90.70;;;;;;4984090;28;20257;-70
2023/03/01 00:32:40;;;;;;;4.00;2.77;;;6.60;91.00;;;;;;4985058;28;20200;-69
2023/03/01 00:35:09;;;;;;;5.40;2.93;;;6.60;91.00;;;;;;4968070;28;20198;-70
2023/03/01 00:37:36;;;;;;;6.23;3.30;;;6.60;91.20;;;;;;4972758;28;20316;-70
2023/03/01 00:40:05;;;;;;;6.03;3.30;;;6.60;91.40;;;;;;4987505;28;20209;-69
2023/03/01 00:42:33;;;;;;;7.77;2.90;;;6.60;91.60;;;;;;4991257;28;20203;-69
2023/03/01 00:45:00;;;;;;;6.20;3.10;;;6.50;91.60;;;;;;4977487;28;20195;-69
2023/03/01 00:47:30;;;;;;;7.20;3.20;;;6.70;91.80;;;;;;4974322;28;22078;-69
2023/03/01 00:49:57;;;;;;;5.10;2.97;;;6.70;92.20;;;;;;4988679;28;20236;-69
2023/03/01 00:52:25;;;;;;;4.47;3.27;;;6.70;92.10;;;;;;4987279;28;20223;-69
2023/03/01 00:54:53;;;;;;;6.07;3.13;;;6.70;92.30;;;;;;4982269;28;20203;-69
2023/03/01 00:57:20;;;;;;;9.13;3.23;;;6.70;92.40;;;;;;4990885;28;20209;-69
2023/03/01 00:59:48;;;;;;;4.97;2.63;;;6.70;92.60;;;;;;4986121;28;20210;-69
2023/03/01 01:02:15;;;;;;;4.17;3.03;;;6.70;92.70;;;;;;4981938;28;20278;-69
2023/03/01 01:04:42;;;;;;;6.93;3.57;;;6.70;92.80;;;;;;4982193;28;20217;-69
2023/03/01 01:07:09;;;;;;;5.13;3.13;;;6.70;92.90;;;;;;4991686;28;20205;-69
2023/03/01 01:09:38;;;;;;;4.30;3.00;;;6.70;92.90;;;;;;5001850;28;20207;-70
2023/03/01 01:12:05;;;;;;;3.93;3.00;;;6.70;92.90;;;;;;4991581;28;20222;-69
2023/03/01 01:14:33;;;;;;;4.93;3.20;;;6.70;92.90;;;;;;4984449;28;20534;-69
2023/03/01 01:17:02;;;;;;;4.57;2.93;;;6.80;93.00;;;;;;4977634;28;20200;-68
2023/03/01 01:19:29;;;;;;;5.77;3.60;;;6.80;93.00;;;;;;4967124;28;20188;-68
2023/03/01 01:21:56;;;;;;;7.43;3.50;;;6.80;93.10;;;;;;5001917;28;20215;-68
2023/03/01 01:24:23;;;;;;;6.20;3.20;;;6.80;93.20;;;;;;4991665;28;20565;-68
2023/03/01 01:26:52;;;;;;;7.00;3.13;;;6.80;93.20;;;;;;4983508;28;20216;-66
2023/03/01 01:29:19;;;;;;;6.60;3.87;;;6.80;93.20;;;;;;4971935;28;20260;-68
2023/03/01 01:31:46;;;;;;;5.77;2.83;;;6.80;93.40;;;;;;4991834;28;20240;-69
2023/03/01 01:34:16;;;;;;;7.43;3.50;;;6.70;93.40;;;;;;4988407;28;20202;-69
2023/03/01 01:36:43;;;;;;;4.03;2.80;;;6.70;93.50;;;;;;4981245;28;20977;-69
2023/03/01 01:39:12;;;;;;;4.50;2.53;;;6.70;93.50;;;;;;4980337;28;20197;-69
2023/03/01 01:41:41;;;;;;;5.57;2.90;;;6.70;93.50;;;;;;4989574;28;20203;-69
2023/03/01 01:44:17;;;;;;;5.30;3.03;;;6.70;93.50;;;;;;4978591;28;20205;-69
2023/03/01 01:46:48;;;;;;;4.57;2.67;;;6.80;93.60;;;;;;4976051;28;20277;-68
2023/03/01 01:49:29;;;;;;;4.43;3.00;;;6.80;93.50;;;;;;4988966;28;20200;-69
2023/03/01 01:52:03;;;;;;;4.57;2.90;;;6.80;93.60;;;;;;4985166;28;20217;-69
2023/03/01 01:54:39;;;;;;;5.53;3.00;;;6.80;93.70;;;;;;4991714;28;20608;-70
2023/03/01 01:57:12;;;;;;;2.70;2.50;;;6.70;93.60;;;;;;4984088;28;20207;-70
2023/03/01 01:59:46;;;;;;;4.90;2.87;;;6.80;93.70;;;;;;4990118;28;20191;-69
2023/03/01 02:02:14;;;;;;;5.63;3.43;;;6.80;93.80;;;;;;4988092;28;20230;-69
2023/03/01 02:04:42;;;;;;;7.53;3.70;;;6.80;93.90;;;;;;4981305;28;20248;-69
2023/03/01 02:07:15;;;;;;;3.93;3.13;;;6.80;94.00;;;;;;4989149;28;20202;-69
2023/03/01 02:09:46;;;;;;;4.90;2.97;;;6.80;94.10;;;;;;4990510;28;20218;-69
2023/03/01 02:12:15;;;;;;;5.30;3.20;;;6.80;94.10;;;;;;4984808;28;20223;-69
2023/03/01 02:14:44;;;;;;;5.87;3.10;;;6.80;94.10;;;;;;4986668;28;20296;-69
2023/03/01 02:17:12;;;;;;;5.03;3.27;;;6.70;94.10;;;;;;4988939;28;20247;-68
2023/03/01 02:19:53;;;;;;;4.97;3.77;;;6.70;94.30;;;;;;4985851;28;20192;-69
2023/03/01 02:22:24;;;;;;;4.07;3.13;;;6.70;94.40;;;;;;4990841;28;20631;-69
2023/03/01 02:25:03;;;;;;;4.90;3.50;;;6.70;94.40;;;;;;4988007;28;20717;-68
2023/03/01 02:27:39;;;;;;;5.30;3.43;;;6.70;94.50;;;;;;4989024;28;20662;-69
2023/03/01 02:30:12;;;;;;;8.53;4.13;;;6.70;94.40;;;;;;4990885;28;20548;-69
2023/03/01 02:32:41;;;;;;;3.93;2.67;;;6.70;94.50;;;;;;4989039;28;20260;-69
2023/03/01 02:35:11;;;;;;;3.80;2.90;;;6.70;94.50;;;;;;4988665;28;20193;-69
2023/03/01 02:37:39;;;;;;;7.97;3.97;;;6.70;94.50;;;;;;4991306;28;20202;-69
2023/03/01 02:40:11;;;;;;;8.90;4.67;;;6.70;94.70;;;;;;4986165;28;20583;-68
2023/03/01 02:42:55;;;;;;;7.80;4.63;;;6.70;94.80;;;;;;4989831;28;20193;-69
2023/03/01 02:45:25;;;;;;;7.33;4.60;;;6.70;95.00;;;;;;4991614;28;20231;-69
2023/03/01 02:47:55;;;;;;;9.67;4.90;;;6.60;95.30;;;;;;4985949;28;20214;-70
2023/03/01 02:50:45;;;;;;;7.33;4.40;;;6.60;95.50;;;;;;4989831;28;20208;-69
2023/03/01 02:53:20;;;;;;;7.67;4.50;;;6.50;95.60;;;;;;4985920;28;20216;-69
2023/03/01 02:55:47;;;;;;;9.83;5.07;;;6.50;95.70;;;;;;4984000;28;20838;-69
2023/03/01 02:58:15;;;;;;;9.93;5.10;;;6.50;95.90;;;;;;4985979;28;20217;-69
2023/03/01 03:00:45;;;;;;;12.17;5.67;;;6.50;96.10;;;;;;4985227;28;20210;-69
2023/03/01 03:03:14;;;;;;;11.70;5.23;;;6.50;96.30;;;;;;5002885;28;20584;-69
2023/03/01 03:05:42;;;;;;;11.70;5.47;;;6.40;96.50;;;;;;4984155;28;20197;-69
2023/03/01 03:08:11;;;;;;;10.83;4.63;;;6.50;96.60;;;;;;4982743;28;20200;-68
2023/03/01 03:10:40;;;;;;;7.63;4.70;;;6.40;96.60;;;;;;4981512;28;20247;-68
2023/03/01 03:13:10;;;;;;;8.67;5.00;;;6.40;96.70;;;;;;5000878;28;20248;-69
2023/03/01 03:15:38;;;;;;;11.77;4.97;;;6.50;96.80;;;;;;4982736;28;20205;-69
2023/03/01 03:18:09;;;;;;;8.57;5.30;;;6.50;96.90;;;;;;4994685;28;20312;-68
2023/03/01 03:20:40;;;;;;;10.13;5.67;;;6.50;96.90;;;;;;4988483;28;20241;-68
2023/03/01 03:23:10;;;;;;;12.10;6.10;;;6.50;97.00;;;;;;4985000;28;20834;-68
2023/03/01 03:25:45;;;;;;;11.07;6.43;;;6.50;97.10;;;;;;4988911;28;20202;-69
2023/03/01 03:28:12;;;;;;;10.63;5.93;;;6.50;97.30;;;;;;4989383;28;20271;-69
2023/03/01 03:30:42;;;;;;;10.67;6.30;;;6.50;97.30;;;;;;4979975;28;20226;-69
2023/03/01 03:33:12;;;;;;;9.53;5.30;;;6.50;97.40;;;;;;4988091;28;20560;-69
2023/03/01 03:35:43;;;;;;;12.10;6.00;;;6.50;97.40;;;;;;4987645;28;20303;-69
2023/03/01 03:38:16;;;;;;;11.97;6.57;;;6.50;97.60;;;;;;4995616;28;20200;-69
2023/03/01 03:40:45;;;;;;;9.87;5.90;;;6.40;97.60;;;;;;5004626;28;20590;-69
2023/03/01 03:43:15;;;;;;;10.30;5.60;;;6.50;97.80;;;;;;4990183;28;20281;-69
2023/03/01 03:45:44;;;;;;;8.43;5.43;;;6.50;97.80;;;;;;4977346;28;21068;-68
2023/03/01 03:48:12;;;;;;;9.17;5.67;;;6.40;98.00;;;;;;4986955;28;20240;-69
2023/03/01 03:50:41;;;;;;;11.37;6.50;;;6.40;97.90;;;;;;4985619;28;20200;-68
2023/03/01 03:53:12;;;;;;;9.13;5.53;;;6.40;97.90;;;;;;4982222;28;20271;-68
2023/03/01 03:55:40;;;;;;;9.73;5.50;;;6.40;97.90;;;;;;4985629;28;20367;-69
2023/03/01 03:58:09;;;;;;;12.07;5.93;;;6.40;98.00;;;;;;4995217;28;20199;-68
2023/03/01 04:00:38;;;;;;;8.97;5.73;;;6.50;98.00;;;;;;4977548;28;20395;-69
2023/03/01 04:03:05;;;;;;;10.53;5.53;;;6.50;98.20;;;;;;4984282;28;20196;-68
2023/03/01 04:05:34;;;;;;;10.90;5.40;;;6.50;98.10;;;;;;4982330;28;20209;-69
2023/03/01 04:08:01;;;;;;;11.87;6.03;;;6.50;98.00;;;;;;4978314;28;20253;-69
2023/03/01 04:10:31;;;;;;;10.90;6.20;;;6.50;98.00;;;;;;4981582;28;20210;-69
2023/03/01 04:12:58;;;;;;;9.27;5.13;;;6.60;98.20;;;;;;4983001;28;20221;-68
2023/03/01 04:15:27;;;;;;;11.10;6.27;;;6.40;98.10;;;;;;4981993;28;20298;-69
2023/03/01 04:17:55;;;;;;;13.43;6.83;;;6.40;98.30;;;;;;4984059;28;20297;-69
2023/03/01 04:20:25;;;;;;;9.43;5.40;;;6.40;98.50;;;;;;4989658;28;20199;-69
2023/03/01 04:22:58;;;;;;;10.00;6.00;;;6.40;98.50;;;;;;4981670;28;20363;-69
2023/03/01 04:25:28;;;;;;;12.80;5.63;;;6.40;98.70;;;;;;4989736;28;20194;-69
2023/03/01 04:27:55;;;;;;;14.53;6.70;;;6.40;98.90;;;;;;5008564;28;20204;-70
2023/03/01 04:30:25;;;;;;;12.47;5.93;;;6.40;98.80;;;;;;4985298;28;20197;-69
2023/03/01 04:32:52;;;;;;;9.90;5.60;;;6.40;98.80;;;;;;4986899;28;20307;-69
2023/03/01 04:35:20;;;;;;;10.00;5.93;;;6.40;98.80;;;;;;4988526;28;20403;-69
2023/03/01 04:37:47;;;;;;;10.90;6.40;;;6.40;98.80;;;;;;4987241;28;20343;-69
2023/03/01 04:40:16;;;;;;;6.53;4.13;;;6.40;98.90;;;;;;4987046;28;20199;-69
2023/03/01 04:42:44;;;;;;;11.73;5.50;;;6.40;98.90;;;;;;4983768;28;20208;-69
2023/03/01 04:45:13;;;;;;;13.83;6.63;;;6.50;99.00;;;;;;4984673;28;20199;-69
2023/03/01 04:47:42;;;;;;;12.33;6.80;;;6.50;98.90;;;;;;4992547;28;20310;-69
2023/03/01 04:50:11;;;;;;;15.00;7.77;;;6.40;98.90;;;;;;4985189;28;20204;-69
2023/03/01 04:52:38;;;;;;;8.83;5.40;;;6.40;98.90;;;;;;4984729;28;20466;-69
2023/03/01 04:55:07;;;;;;;10.57;5.50;;;6.40;99.00;;;;;;4983008;28;20318;-69
2023/03/01 04:57:35;;;;;;;8.27;4.73;;;6.40;99.00;;;;;;4985911;28;20214;-69
2023/03/01 05:00:19;;;;;;;9.40;5.27;;;6.40;98.90;;;;;;4979760;28;20206;-69
2023/03/01 05:02:53;;;;;;;10.63;5.97;;;6.50;99.00;;;;;;5000963;28;20206;-68
2023/03/01 05:05:25;;;;;;;6.40;4.13;;;6.50;98.80;;;;;;4986714;28;20202;-69
2023/03/01 05:07:55;;;;;;;5.87;4.20;;;7.40;99.20;;;;;;4978882;28;20210;-69
2023/03/01 05:10:22;;;;;;;11.53;6.17;;;6.50;98.70;;;;;;4991133;28;20202;-68
2023/03/01 05:12:51;;;;;;;10.77;5.80;;;6.50;98.70;;;;;;4988771;28;20240;-68
2023/03/01 05:15:21;;;;;;;6.93;4.80;;;6.50;98.60;;;;;;4988629;28;20198;-69
2023/03/01 05:17:50;;;;;;;7.80;4.33;;;6.40;98.50;;;;;;4988145;28;20207;-68
2023/03/01 05:20:17;;;;;;;8.77;5.10;;;6.40;98.90;;;;;;4985071;28;20198;-68
2023/03/01 05:22:44;;;;;;;8.30;5.30;;;6.40;98.60;;;;;;4993039;28;20197;-69
2023/03/01 05:25:13;;;;;;;7.40;5.17;;;6.00;98.50;;;;;;4989170;28;20199;-69
2023/03/01 05:27:40;;;;;;;9.77;5.60;;;6.40;98.80;;;;;;4993637;28;20200;-70
2023/03/01 05:30:14;;;;;;;11.23;6.10;;;6.40;98.80;;;;;;4991872;28;20558;-69
2023/03/01 05:32:45;;;;;;;10.83;6.23;;;6.30;98.80;;;;;;4993848;28;20240;-70
2023/03/01 05:35:14;;;;;;;10.73;6.50;;;6.30;98.90;;;;;;4992924;28;20199;-69
2023/03/01 05:37:43;;;;;;;10.30;5.60;;;6.30;99.00;;;;;;4993040;28;20230;-69
2023/03/01 05:40:15;;;;;;;7.83;4.97;;;6.20;99.00;;;;;;4992561;28;20208;-71
2023/03/01 05:42:46;;;;;;;6.97;4.13;;;6.30;99.10;;;;;;4990200;28;20217;-70
2023/03/01 05:45:15;;;;;;;5.33;3.63;;;6.30;99.10;;;;;;4995856;28;20386;-70
2023/03/01 05:47:44;;;;;;;6.53;4.43;;;6.30;99.00;;;;;;4993189;28;20200;-68
2023/03/01 05:50:18;;;;;;;9.20;5.33;;;6.40;98.90;;;;;;4992610;28;20204;-68
2023/03/01 05:52:48;;;;;;;10.47;5.57;;;6.40;98.90;;;;;;4993053;28;20212;-69
2023/03/01 05:55:16;;;;;;;9.40;5.33;;;6.40;98.90;;;;;;4990049;28;20217;-69
2023/03/01 05:57:51;;;;;;;9.33;5.73;;;6.40;98.90;;;;;;4993053;28;20250;-69
2023/03/01 06:00:25;;;;;;;10.77;6.00;;;6.40;99.00;;;;;;4987727;28;20200;-69
2023/03/01 06:02:55;;;;;;;11.60;6.00;;;6.30;99.00;;;;;;4989136;28;20203;-69
2023/03/01 06:05:26;;;;;;;8.87;5.17;;;6.30;99.00;;;;;;4993849;28;20192;-69
2023/03/01 06:07:53;;;;;;;10.00;5.17;;;6.30;99.10;;;;;;4998422;28;20688;-69
2023/03/01 06:10:23;;;;;;;5.23;3.77;;;6.40;99.10;;;;;;4990977;28;20200;-69
2023/03/01 06:12:50;;;;;;;6.23;4.10;;;6.40;99.00;;;;;;4994677;28;20223;-69
2023/03/01 06:15:21;;;;;;;6.90;4.00;;;6.40;98.90;;;;;;4991655;28;20205;-68
2023/03/01 06:17:50;;;;;;;5.37;3.90;;;6.40;98.90;;;;;;4992382;28;20297;-69
2023/03/01 06:20:20;;;;;;;4.83;3.33;;;6.40;98.80;;;;;;4988592;28;20293;-69
2023/03/01 06:22:48;;;;;;;5.63;4.20;;;6.40;98.80;;;;;;4984201;28;20594;-69
2023/03/01 06:25:22;;;;;;;10.10;6.20;;;6.40;98.90;;;;;;4992325;28;20196;-70
2023/03/01 06:27:51;;;;;;;7.87;5.17;;;8.10;99.70;;;;;;4991260;28;20285;-70
2023/03/01 06:30:22;;;;;;;11.57;5.93;;;6.40;99.00;;;;;;4982269;28;20280;-68
2023/03/01 06:32:49;;;;;;;8.63;5.83;;;6.40;99.10;;;;;;4992992;28;20209;-68
2023/03/01 06:35:19;;;;;;;13.63;6.97;;;6.50;99.20;;;;;;4990341;28;20689;-68
2023/03/01 06:37:51;;;;;;;12.17;7.07;;;6.50;99.30;;;;;;4981030;28;20201;-70
2023/03/01 06:40:18;;;;;;;13.57;7.67;;;6.40;99.30;;;;;;4991643;28;20196;-68
2023/03/01 06:42:50;;;;;;;11.77;6.30;;;6.40;99.40;;;;;;4992781;28;20203;-68
2023/03/01 06:45:20;;;;;;;11.27;6.13;;;6.40;99.50;;;;;;4973928;28;20207;-69
2023/03/01 06:47:48;;;;;;;8.43;5.10;;;6.40;99.40;;;;;;4978163;28;20252;-69
2023/03/01 06:50:16;;;;;;;8.57;5.07;;;6.40;99.40;;;;;;4986927;28;20232;-69
2023/03/01 06:52:44;;;;;;;6.57;4.23;;;6.50;99.30;;;;;;4991697;28;20324;-68
2023/03/01 06:55:12;;;;;;;6.93;4.17;;;6.50;99.20;;;;;;4990579;28;20206;-69
2023/03/01 06:57:39;;;;;;;6.40;4.13;;;6.60;99.30;;;;;;4991022;28;20217;-68
2023/03/01 07:00:07;;;;;;;6.17;4.00;;;6.60;99.20;;;;;;4992414;28;20210;-69
2023/03/01 07:02:36;;;;;;;4.80;3.40;;;6.70;99.10;;;;;;4991881;28;20669;-70
2023/03/01 07:05:03;;;;;;;5.10;3.50;;;6.70;99.10;;;;;;4991690;28;20573;-70
2023/03/01 07:07:31;;;;;;;4.87;3.63;;;6.70;99.00;;;;;;4989942;28;20214;-69
2023/03/01 07:09:58;;;;;;;8.17;4.97;;;6.70;99.00;;;;;;4976449;28;21625;-68
2023/03/01 07:12:25;;;;;;;16.53;7.37;;;6.80;99.00;;;;;;4981999;28;20720;-69
2023/03/01 07:14:52;;;;;;;10.83;5.97;;;6.80;99.00;;;;;;4986931;28;20221;-69
2023/03/01 07:17:20;;;;;;;8.53;4.90;;;6.80;99.10;;;;;;4986141;28;20193;-68
2023/03/01 07:19:49;;;;;;;6.90;4.63;;;6.90;99.00;;;;;;4979746;28;20278;-68
2023/03/01 07:22:19;;;;;;;6.70;4.60;;;6.90;99.10;;;;;;4978137;28;20205;-69
2023/03/01 07:24:46;;;;;;;6.33;4.33;;;7.00;98.80;;;;;;4982281;28;20541;-68
2023/03/01 07:27:16;;;;;;;10.07;5.27;;;7.00;98.70;;;;;;4978229;28;20196;-69
2023/03/01 07:29:43;;;;;;;7.93;4.70;;;9.00;99.50;;;;;;4982268;28;20625;-68
2023/03/01 07:32:11;;;;;;;5.17;3.53;;;7.10;98.70;;;;;;4986773;28;20507;-69
2023/03/01 07:34:38;;;;;;;7.20;4.17;;;7.10;98.70;;;;;;4986128;28;20203;-69
2023/03/01 07:37:07;;;;;;;6.23;3.87;;;6.10;98.40;;;;;;4982036;28;20203;-69
2023/03/01 07:39:34;;;;;;;8.77;4.70;;;7.20;98.60;;;;;;4989587;28;20204;-69
2023/03/01 07:42:02;;;;;;;6.53;4.37;;;7.30;98.60;;;;;;4989803;28;20289;-69
2023/03/01 07:44:30;;;;;;;5.67;3.90;;;7.30;98.50;;;;;;4975373;28;20196;-69
2023/03/01 07:46:57;;;;;;;4.67;3.20;;;7.40;98.50;;;;;;4987946;28;20293;-68
2023/03/01 07:49:26;;;;;;;5.23;3.50;;;7.40;98.40;;;;;;4986198;28;20721;-68
2023/03/01 07:51:53;;;;;;;4.43;3.37;;;7.50;98.40;;;;;;4977457;28;20299;-69
2023/03/01 07:54:24;;;;;;;7.93;4.33;;;7.60;98.30;;;;;;4979941;28;20211;-69
2023/03/01 07:56:55;;;;;;;4.40;3.13;;;7.80;98.40;;;;;;4979412;28;20266;-69
2023/03/01 07:59:23;;;;;;;5.93;3.90;;;7.90;98.30;;;;;;4982732;28;20215;-69
2023/03/01 08:01:50;;;;;;;4.77;3.30;;;8.20;98.30;;;;;;4981233;28;20288;-69
2023/03/01 08:04:17;;;;;;;5.37;3.67;;;10.30;98.60;;;;;;4983895;28;20592;-68
2023/03/01 08:06:45;;;;;;;4.70;3.30;;;8.70;98.00;;;;;;4984788;28;20247;-69
2023/03/01 08:09:12;;;;;;;8.47;4.80;;;9.00;97.60;;;;;;4984418;28;20263;-69
2023/03/01 08:11:40;;;;;;;7.63;4.77;;;9.30;96.80;;;;;;4982882;28;20548;-69
2023/03/01 08:14:08;;;;;;;6.93;4.47;;;9.60;96.40;;;;;;4987444;28;20703;-68
2023/03/01 08:16:38;;;;;;;7.77;4.37;;;9.80;95.90;;;;;;5000325;28;20209;-68
2023/03/01 08:19:08;;;;;;;9.27;4.53;;;10.10;95.20;;;;;;4986968;28;20212;-68
2023/03/01 08:21:35;;;;;;;6.30;4.50;;;10.40;94.70;;;;;;4981509;28;20696;-68
2023/03/01 08:24:05;;;;;;;7.13;4.50;;;10.60;94.10;;;;;;4986362;28;20253;-68
2023/03/01 08:26:33;;;;;;;7.17;4.60;;;10.80;93.70;;;;;;4978603;28;20218;-68
2023/03/01 08:29:02;;;;;;;8.30;4.50;;;11.00;93.30;;;;;;4976006;28;20204;-68
2023/03/01 08:31:32;;;;;;;8.87;4.93;;;11.00;92.60;;;;;;4986590;28;20200;-68
2023/03/01 08:34:02;;;;;;;8.73;4.90;;;11.30;92.10;;;;;;4988973;28;20505;-68
2023/03/01 08:36:35;;;;;;;7.47;4.43;;;11.40;91.80;;;;;;4987586;28;20658;-68
2023/03/01 08:39:06;;;;;;;5.43;3.63;;;11.60;91.80;;;;;;4987462;28;20597;-68
2023/03/01 08:41:33;;;;;;;8.00;4.27;;;11.70;91.50;;;;;;4994212;28;20204;-68
2023/03/01 08:44:05;;;;;;;9.50;4.27;;;11.90;91.30;;;;;;5011430;28;20194;-68
2023/03/01 08:46:33;;;;;;;7.20;4.40;;;12.00;91.10;;;;;;5009532;28;20194;-68
2023/03/01 08:49:04;;;;;;;7.03;4.07;;;12.10;90.70;;;;;;5004779;28;20203;-68
2023/03/01 08:51:36;;;;;;;9.87;5.20;;;12.20;90.40;;;;;;5011028;28;20263;-69
2023/03/01 08:54:05;;;;;;;8.40;5.00;;;12.30;89.90;;;;;;4996253;28;20595;-69
2023/03/01 08:56:32;;;;;;;9.47;4.80;;;12.30;88.50;;;;;;4983883;28;20289;-69
2023/03/01 08:59:00;;;;;;;11.30;4.53;;;12.20;88.70;;;;;;4987337;28;20202;-69
2023/03/01 09:01:31;;;;;;;7.50;4.67;;;12.20;88.80;;;;;;4980987;28;20196;-68
2023/03/01 09:03:58;;;;;;;12.90;5.23;;;12.20;88.40;;;;;;4985697;28;20202;-68
2023/03/01 09:06:26;;;;;;;7.60;4.60;;;12.20;87.70;;;;;;4990247;28;20595;-69
2023/03/01 09:08:54;;;;;;;7.40;4.30;;;12.30;88.00;;;;;;4999577;28;20236;-68
2023/03/01 09:11:23;;;;;;;6.30;4.27;;;12.30;87.60;;;;;;4996060;28;20560;-69
2023/03/01 09:13:50;;;;;;;6.73;4.60;;;12.30;87.20;;;;;;4983149;28;20558;-69
2023/03/01 09:16:20;;;;;;;5.87;4.10;;;12.10;87.60;;;;;;4984268;28;20310;-69
2023/03/01 09:18:52;;;;;;;6.87;4.27;;;12.10;87.20;;;;;;4985881;28;20298;-68
2023/03/01 09:21:20;;;;;;;7.57;4.67;;;12.10;87.10;;;;;;4978316;28;20612;-69
2023/03/01 09:23:48;;;;;;;6.50;4.50;;;12.10;86.50;;;;;;4990105;28;20294;-68
2023/03/01 09:26:18;;;;;;;7.23;4.17;;;12.10;86.30;;;;;;4984196;28;20374;-69
2023/03/01 09:28:46;;;;;;;6.57;4.60;;;12.10;86.10;;;;;;4977380;28;20709;-68
2023/03/01 09:31:17;;;;;;;7.90;4.70;;;12.20;86.20;;;;;;4988083;28;20730;-69
2023/03/01 09:33:49;;;;;;;5.30;4.23;;;12.40;85.70;;;;;;4986333;28;20223;-68
2023/03/01 09:36:19;;;;;;;6.77;4.50;;;12.40;85.20;;;;;;4992753;28;20200;-69
2023/03/01 09:38:47;;;;;;;5.67;4.03;;;12.50;85.20;;;;;;4988823;28;20667;-69
2023/03/01 09:41:44;;;;;;;5.73;3.93;;;12.70;85.20;;;;;;4990721;28;20535;-69
2023/03/01 09:44:21;;;;;;;6.00;4.20;;;12.80;85.00;;;;;;4995890;28;20779;-68
2023/03/01 09:46:48;;;;;;;5.30;4.47;;;14.40;85.80;;;;;;4977468;28;20205;-68
2023/03/01 09:49:18;;;;;;;5.90;4.30;;;12.90;84.50;;;;;;4977945;28;20637;-68
2023/03/01 09:51:56;;;;;;;5.47;3.90;;;13.00;84.90;;;;;;4980026;28;20203;-68
2023/03/01 09:54:23;;;;;;;7.57;4.67;;;13.20;84.00;;;;;;4981902;28;21135;-68
2023/03/01 09:57:06;;;;;;;8.63;5.03;;;13.50;83.50;;;;;;4984141;28;20215;-68
2023/03/01 09:59:55;;;;;;;7.10;4.13;;;13.70;82.70;;;;;;4979198;28;20205;-68
2023/03/01 10:02:31;;;;;;;8.37;4.67;;;14.00;82.20;;;;;;4981663;28;20258;-67
2023/03/01 10:05:06;;;;;;;8.27;4.20;;;14.60;80.30;;;;;;4980731;28;20217;-68
2023/03/01 10:07:45;;;;;;;9.00;4.40;;;16.60;81.00;;;;;;4977702;28;20210;-68
2023/03/01 10:10:27;;;;;;;6.23;3.57;;;15.60;77.30;;;;;;4984094;28;20193;-68
2023/03/01 10:12:57;;;;;;;4.33;3.53;;;16.00;76.70;;;;;;4982768;28;20193;-68
2023/03/01 10:15:35;;;;;;;3.53;3.07;;;16.40;75.10;;;;;;4984094;28;20569;-68
2023/03/01 10:18:07;;;;;;;4.53;3.80;;;17.00;74.60;;;;;;4989164;28;20202;-68
2023/03/01 10:20:44;;;;;;;3.60;3.20;;;17.30;72.50;;;;;;4983118;28;20550;-68
2023/03/01 10:23:12;;;;;;;4.80;3.20;;;18.00;71.40;;;;;;4988009;28;20231;-68
2023/03/01 10:26:00;;;;;;;5.87;3.50;;;18.90;70.20;;;;;;4988003;28;20196;-68
2023/03/01 10:28:32;;;;;;;4.93;3.53;;;19.90;67.50;;;;;;4990821;28;20254;-68
2023/03/01 10:31:02;;;;;;;5.33;3.17;;;21.00;64.60;;;;;;4980296;28;20193;-68
2023/03/01 10:33:33;;;;;;;5.45;3.70;;;22.20;62.30;;;;;;5000310;28;20228;-69
2023/03/01 10:36:00;;;;;;;5.22;3.70;;;23.50;59.60;;;;;;4986529;28;20203;-68
2023/03/01 10:38:32;;;;;;;4.55;4.10;;;24.50;56.10;;;;;;4981412;28;20208;-68
2023/03/01 10:41:06;;;;;;;5.18;3.60;;;25.10;50.90;;;;;;4979350;28;20197;-67
2023/03/01 10:43:45;;;;;;;4.10;3.60;;;25.70;49.70;;;;;;4983411;28;20196;-69
2023/03/01 10:46:24;;;;;;;4.03;3.63;;;26.30;48.50;;;;;;4977609;28;20739;-68
2023/03/01 10:49:08;;;;;;;5.00;3.72;;;27.00;47.60;;;;;;4982371;28;20321;-69
2023/03/01 10:51:35;;;;;;;5.78;3.90;;;27.60;45.80;;;;;;4986395;28;20201;-68
2023/03/01 10:54:07;;;;;;;4.32;3.92;;;27.70;44.20;;;;;;4982915;28;20212;-68
2023/03/01 10:56:48;;;;;;;3.33;3.03;;;27.70;44.00;;;;;;4999992;28;20211;-68
2023/03/01 10:59:27;;;;;;;4.28;3.88;;;27.40;43.10;;;;;;4987314;28;20199;-69
2023/03/01 11:02:15;;;;;;;5.22;3.63;;;26.70;43.30;;;;;;4989212;28;20199;-68
2023/03/01 11:04:58;;;;;;;6.10;3.45;;;25.90;43.80;;;;;;4980831;28;20184;-69
2023/03/01 11:07:28;;;;;;;5.25;3.70;;;25.40;44.30;;;;;;4984049;28;20200;-68
2023/03/01 11:09:57;;;;;;;4.20;3.50;;;25.20;44.30;;;;;;4977780;28;20236;-70
2023/03/01 11:12:25;;;;;;;5.95;4.10;;;25.10;44.30;;;;;;4997138;28;20211;-68
2023/03/01 11:14:55;;;;;;;4.35;3.92;;;25.00;44.10;;;;;;4984209;28;20215;-69
2023/03/01 11:17:26;;;;;;;3.95;3.20;;;24.70;44.10;;;;;;4982815;28;20203;-69
2023/03/01 11:20:07;;;;;;;4.72;3.70;;;24.20;44.10;;;;;;4981013;28;20252;-69
2023/03/01 11:22:36;;;;;;;4.35;3.60;;;23.80;44.40;;;;;;4986177;28;20255;-69
2023/03/01 11:25:14;;;;;;;5.47;3.80;;;23.80;44.70;;;;;;4985400;28;20200;-69
2023/03/01 11:27:48;;;;;;;3.42;3.13;;;23.60;44.50;;;;;;4982824;28;20700;-68
2023/03/01 11:30:22;;;;;;;4.65;3.90;;;23.40;44.40;;;;;;4981895;28;20562;-68
2023/03/01 11:33:04;;;;;;;6.45;3.72;;;22.90;44.20;;;;;;4991066;28;20191;-69
2023/03/01 11:35:38;;;;;;;3.63;3.25;;;23.40;45.40;;;;;;4979031;28;20321;-69
2023/03/01 11:38:18;;;;;;;3.67;3.38;;;22.00;45.20;;;;;;4984918;28;20602;-68
2023/03/01 11:40:52;;;;;;;3.95;3.40;;;21.50;45.50;;;;;;4978751;28;20193;-68
2023/03/01 11:43:27;;;;;;;5.38;3.67;;;21.10;45.80;;;;;;4972620;28;20723;-68
2023/03/01 11:46:32;;;;;;;6.55;3.78;;;20.90;46.20;;;;;;4977138;28;20208;-68
2023/03/01 11:49:23;;;;;;;5.32;4.35;;;20.90;46.50;;;;;;4943348;28;20311;-68
2023/03/01 11:51:59;;;;;;;7.55;5.47;;;20.90;45.80;;;;;;4976471;28;20287;-68
2023/03/01 11:54:37;;;;;;;5.53;4.55;;;20.70;45.50;;;;;;4979659;28;20215;-69
2023/03/01 11:57:19;;;;;;;5.47;4.20;;;20.40;45.70;;;;;;4982156;28;20270;-68
2023/03/01 12:00:19;;;;;;;5.43;4.50;;;20.10;46.10;;;;;;4984058;28;20207;-68
2023/03/01 12:03:33;;;;;;;7.35;4.90;;;20.10;46.20;;;;;;4995476;28;20613;-68
2023/03/01 12:06:29;;;;;;;4.20;3.80;;;19.90;46.10;;;;;;4996222;28;20612;-68
2023/03/01 12:09:08;;;;;;;6.07;4.82;;;19.60;46.40;;;;;;4979712;28;20196;-68
2023/03/01 12:11:49;;;;;;;8.95;5.82;;;19.30;46.60;;;;;;4988210;28;20200;-68
2023/03/01 12:14:42;;;;;;;7.00;4.97;;;19.10;46.90;;;;;;4980056;28;20215;-69
2023/03/01 12:17:41;;;;;;;5.95;4.45;;;18.90;47.30;;;;;;4984168;28;20266;-69
2023/03/01 12:20:21;;;;;;;10.90;5.35;;;18.80;47.40;;;;;;4983572;28;20207;-68
2023/03/01 12:23:03;;;;;;;5.75;4.38;;;18.90;47.20;;;;;;4986310;28;20203;-67
2023/03/01 12:25:40;;;;;;;6.80;4.28;;;18.60;47.10;;;;;;4988123;28;20278;-67
2023/03/01 12:28:41;;;;;;;5.28;3.92;;;19.10;47.50;;;;;;4979072;28;20200;-68
2023/03/01 12:31:41;;;;;;;5.00;4.22;;;19.40;47.30;;;;;;4984321;28;20191;-69
2023/03/01 12:34:25;;;;;;;6.15;4.30;;;19.10;46.90;;;;;;4983699;28;20552;-68
2023/03/01 12:37:16;;;;;;;3.78;3.38;;;18.70;47.30;;;;;;4991334;28;20305;-68
2023/03/01 12:39:56;;;;;;;6.35;4.47;;;18.40;47.90;;;;;;4990622;28;20172;-68
2023/03/01 12:42:31;;;;;;;4.22;3.83;;;18.10;48.40;;;;;;5011960;28;20193;-68
2023/03/01 12:45:17;;;;;;;5.03;3.72;;;18.00;48.60;;;;;;4984982;28;20274;-68
2023/03/01 12:47:59;;;;;;;4.80;4.30;;;18.10;48.80;;;;;;4988933;28;20201;-68
2023/03/01 12:50:38;;;;;;;5.53;4.05;;;18.30;48.80;;;;;;4984592;28;20215;-69
2023/03/01 12:53:05;;;;;;;4.10;3.70;;;19.00;48.40;;;;;;4977641;28;20556;-69
2023/03/01 12:55:36;;;;;;;4.65;3.85;;;19.80;47.90;;;;;;4988045;28;20239;-69
2023/03/01 12:58:16;;;;;;;4.05;3.63;;;20.70;47.40;;;;;;4990130;28;20228;-69
2023/03/01 13:00:54;;;;;;;4.10;3.72;;;21.70;46.60;;;;;;4978844;28;20226;-69
2023/03/01 13:03:34;;;;;;;5.07;3.47;;;22.80;45.90;;;;;;4988100;28;20286;-68
2023/03/01 13:06:11;;;;;;;5.03;4.45;;;23.90;44.90;;;;;;4988620;28;20196;-69
2023/03/01 13:08:44;;;;;;;3.78;3.25;;;24.40;43.50;;;;;;4985568;28;20223;-68
2023/03/01 13:11:18;;;;;;;3.75;3.45;;;24.60;43.20;;;;;;4991775;28;20564;-68
2023/03/01 13:13:46;;;;;;;4.85;3.85;;;25.00;43.20;;;;;;4985910;28;20210;-69